Story, Wyoming
Current Conditions -  °F | °C
As of 2:34 PM on Wednesday 26 Nov 2014 (Local Time) from KSHR Reporting Station
Light Snow Light Snow  
Wind Chill: 29°   Ceiling: 2600
Heat Index: 29°   Visibility: 3mi
Dew Point: 26°   Wind: 3mph
Humidity: 89%   Direction: 170°S
Pressure: 30.18"   Gusts: NA
Location:  44.57°N, 106.89°W
Report Text: KSHR 262134Z AUTO 17003KT 3SM -SN BR SCT005 BKN026 OVC046 M02/M03 A3018 RMK AO2 P0001 T10171033 TSNO
Loading
Personal Weather Stations






























Interactive Weather Map New forecast layout! Learn more

10-Day Weather Forecast

Advertisements
Track Severe Weather on mobile